sensor_id;sensor_type;location;lat;lon;timestamp;pressure;altitude;pressure_sealevel;temperature
66180;BMP280;52986;44.028;20.466;2023-04-24T00:00:54;97560.84;;;10.30
66180;BMP280;52986;44.028;20.466;2023-04-24T00:03:25;97565.75;;;10.32
66180;BMP280;52986;44.028;20.466;2023-04-24T00:05:51;97575.72;;;10.31
66180;BMP280;52986;44.028;20.466;2023-04-24T00:08:17;97571.09;;;10.32
66180;BMP280;52986;44.028;20.466;2023-04-24T00:10:43;97575.41;;;10.29
66180;BMP280;52986;44.028;20.466;2023-04-24T00:13:08;97569.16;;;10.42
66180;BMP280;52986;44.028;20.466;2023-04-24T00:15:34;97568.56;;;10.47
66180;BMP280;52986;44.028;20.466;2023-04-24T00:17:59;97567.84;;;10.46
66180;BMP280;52986;44.028;20.466;2023-04-24T00:20:26;97567.25;;;10.42
66180;BMP280;52986;44.028;20.466;2023-04-24T00:22:53;97563.69;;;10.45
66180;BMP280;52986;44.028;20.466;2023-04-24T00:25:18;97564.44;;;10.46
66180;BMP280;52986;44.028;20.466;2023-04-24T00:27:44;97561.16;;;10.51
66180;BMP280;52986;44.028;20.466;2023-04-24T00:30:09;97557.28;;;10.52
66180;BMP280;52986;44.028;20.466;2023-04-24T00:32:35;97561.47;;;10.62
66180;BMP280;52986;44.028;20.466;2023-04-24T00:35:00;97554.78;;;10.67
66180;BMP280;52986;44.028;20.466;2023-04-24T00:37:26;97557.13;;;10.74
66180;BMP280;52986;44.028;20.466;2023-04-24T00:39:51;97550.13;;;10.76
66180;BMP280;52986;44.028;20.466;2023-04-24T00:42:16;97556.97;;;10.77
66180;BMP280;52986;44.028;20.466;2023-04-24T00:44:42;97554.59;;;10.79
66180;BMP280;52986;44.028;20.466;2023-04-24T00:47:08;97560.53;;;10.83
66180;BMP280;52986;44.028;20.466;2023-04-24T00:49:33;97559.19;;;10.88
66180;BMP280;52986;44.028;20.466;2023-04-24T00:51:58;97565.03;;;10.86
66180;BMP280;52986;44.028;20.466;2023-04-24T00:54:24;97562.19;;;10.81
66180;BMP280;52986;44.028;20.466;2023-04-24T00:56:50;97559.97;;;10.79
66180;BMP280;52986;44.028;20.466;2023-04-24T00:59:16;97555.66;;;10.73
66180;BMP280;52986;44.028;20.466;2023-04-24T01:01:44;97552.19;;;10.72
66180;BMP280;52986;44.028;20.466;2023-04-24T01:04:11;97553.88;;;10.70
66180;BMP280;52986;44.028;20.466;2023-04-24T01:06:39;97550.44;;;10.69
66180;BMP280;52986;44.028;20.466;2023-04-24T01:09:05;97550.44;;;10.69
66180;BMP280;52986;44.028;20.466;2023-04-24T01:11:33;97554.19;;;10.62
66180;BMP280;52986;44.028;20.466;2023-04-24T01:13:58;97554.63;;;10.61
66180;BMP280;52986;44.028;20.466;2023-04-24T01:16:24;97550.88;;;10.58
66180;BMP280;52986;44.028;20.466;2023-04-24T01:18:50;97550.31;;;10.54
66180;BMP280;52986;44.028;20.466;2023-04-24T01:21:16;97553.28;;;10.56
66180;BMP280;52986;44.028;20.466;2023-04-24T01:23:44;97553.41;;;10.53
66180;BMP280;52986;44.028;20.466;2023-04-24T01:26:10;97549.56;;;10.54
66180;BMP280;52986;44.028;20.466;2023-04-24T01:28:36;97546.44;;;10.55
66180;BMP280;52986;44.028;20.466;2023-04-24T01:31:02;97552.06;;;10.57
66180;BMP280;52986;44.028;20.466;2023-04-24T01:33:27;97552.06;;;10.57
66180;BMP280;52986;44.028;20.466;2023-04-24T01:35:53;97545.69;;;10.55
66180;BMP280;52986;44.028;20.466;2023-04-24T01:38:19;97544.78;;;10.58
66180;BMP280;52986;44.028;20.466;2023-04-24T01:40:44;97540.78;;;10.53
66180;BMP280;52986;44.028;20.466;2023-04-24T01:43:11;97549.84;;;10.56
66180;BMP280;52986;44.028;20.466;2023-04-24T01:45:36;97547.00;;;10.59
66180;BMP280;52986;44.028;20.466;2023-04-24T01:48:01;97545.97;;;10.48
66180;BMP280;52986;44.028;20.466;2023-04-24T01:50:27;97547.03;;;10.50
66180;BMP280;52986;44.028;20.466;2023-04-24T01:52:52;97538.41;;;10.46
66180;BMP280;52986;44.028;20.466;2023-04-24T01:55:18;97529.47;;;10.58
66180;BMP280;52986;44.028;20.466;2023-04-24T01:57:43;97527.53;;;10.68
66180;BMP280;52986;44.028;20.466;2023-04-24T02:00:09;97527.34;;;10.72
66180;BMP280;52986;44.028;20.466;2023-04-24T02:02:36;97530.50;;;10.79
66180;BMP280;52986;44.028;20.466;2023-04-24T02:05:02;97524.84;;;10.77
66180;BMP280;52986;44.028;20.466;2023-04-24T02:07:28;97522.75;;;10.72
66180;BMP280;52986;44.028;20.466;2023-04-24T02:09:53;97516.94;;;10.64
66180;BMP280;52986;44.028;20.466;2023-04-24T02:12:19;97510.41;;;10.56
66180;BMP280;52986;44.028;20.466;2023-04-24T02:14:44;97507.00;;;10.47
66180;BMP280;52986;44.028;20.466;2023-04-24T02:17:10;97500.44;;;10.39
66180;BMP280;52986;44.028;20.466;2023-04-24T02:19:38;97505.97;;;10.35
66180;BMP280;52986;44.028;20.466;2023-04-24T02:22:05;97500.47;;;10.29
66180;BMP280;52986;44.028;20.466;2023-04-24T02:24:30;97496.75;;;10.27
66180;BMP280;52986;44.028;20.466;2023-04-24T02:26:56;97493.03;;;10.24
66180;BMP280;52986;44.028;20.466;2023-04-24T02:29:23;97491.09;;;10.25
66180;BMP280;52986;44.028;20.466;2023-04-24T02:31:48;97497.19;;;10.25
66180;BMP280;52986;44.028;20.466;2023-04-24T02:34:14;97489.59;;;10.33
66180;BMP280;52986;44.028;20.466;2023-04-24T02:36:39;97482.03;;;10.31
66180;BMP280;52986;44.028;20.466;2023-04-24T02:39:04;97490.06;;;10.31
66180;BMP280;52986;44.028;20.466;2023-04-24T02:41:30;97480.25;;;10.28
66180;BMP280;52986;44.028;20.466;2023-04-24T02:44:00;97485.91;;;10.21
66180;BMP280;52986;44.028;20.466;2023-04-24T02:46:26;97481.44;;;10.18
66180;BMP280;52986;44.028;20.466;2023-04-24T02:48:51;97482.47;;;10.12
66180;BMP280;52986;44.028;20.466;2023-04-24T02:51:17;97485.00;;;10.06
66180;BMP280;52986;44.028;20.466;2023-04-24T02:53:42;97482.72;;;9.95
66180;BMP280;52986;44.028;20.466;2023-04-24T02:56:08;97480.66;;;9.90
66180;BMP280;52986;44.028;20.466;2023-04-24T02:58:33;97479.91;;;9.90
66180;BMP280;52986;44.028;20.466;2023-04-24T03:00:59;97479.31;;;9.86
66180;BMP280;52986;44.028;20.466;2023-04-24T03:03:25;97477.94;;;9.81
66180;BMP280;52986;44.028;20.466;2023-04-24T03:05:50;97482.09;;;9.73
66180;BMP280;52986;44.028;20.466;2023-04-24T03:08:16;97480.44;;;9.66
66180;BMP280;52986;44.028;20.466;2023-04-24T03:10:41;97473.28;;;9.63
66180;BMP280;52986;44.028;20.466;2023-04-24T03:13:07;97474.66;;;9.59
66180;BMP280;52986;44.028;20.466;2023-04-24T03:15:32;97480.69;;;9.50
66180;BMP280;52986;44.028;20.466;2023-04-24T03:17:58;97483.78;;;9.39
66180;BMP280;52986;44.028;20.466;2023-04-24T03:20:23;97495.03;;;9.34
66180;BMP280;52986;44.028;20.466;2023-04-24T03:22:48;97498.59;;;9.31
66180;BMP280;52986;44.028;20.466;2023-04-24T03:25:14;97499.13;;;9.26
66180;BMP280;52986;44.028;20.466;2023-04-24T03:27:39;97496.75;;;9.19
66180;BMP280;52986;44.028;20.466;2023-04-24T03:30:06;97493.03;;;9.17
66180;BMP280;52986;44.028;20.466;2023-04-24T03:32:32;97499.13;;;9.17
66180;BMP280;52986;44.028;20.466;2023-04-24T03:34:57;97496.56;;;9.14
66180;BMP280;52986;44.028;20.466;2023-04-24T03:37:22;97488.56;;;9.14
66180;BMP280;52986;44.028;20.466;2023-04-24T03:39:48;97497.28;;;9.14
66180;BMP280;52986;44.028;20.466;2023-04-24T03:42:13;97507.88;;;9.18
66180;BMP280;52986;44.028;20.466;2023-04-24T03:44:39;97510.84;;;9.20
66180;BMP280;52986;44.028;20.466;2023-04-24T03:47:04;97503.56;;;9.20
66180;BMP280;52986;44.028;20.466;2023-04-24T03:49:29;97504.94;;;9.25
66180;BMP280;52986;44.028;20.466;2023-04-24T03:51:55;97499.59;;;9.25
66180;BMP280;52986;44.028;20.466;2023-04-24T03:54:20;97497.84;;;9.31
66180;BMP280;52986;44.028;20.466;2023-04-24T03:56:46;97505.59;;;9.38
66180;BMP280;52986;44.028;20.466;2023-04-24T03:59:11;97498.53;;;9.53
66180;BMP280;52986;44.028;20.466;2023-04-24T04:01:36;97501.06;;;9.57
66180;BMP280;52986;44.028;20.466;2023-04-24T04:04:06;97501.09;;;9.66
66180;BMP280;52986;44.028;20.466;2023-04-24T04:06:32;97505.72;;;9.75
66180;BMP280;52986;44.028;20.466;2023-04-24T04:08:58;97498.88;;;9.73
66180;BMP280;52986;44.028;20.466;2023-04-24T04:11:24;97498.94;;;9.83
66180;BMP280;52986;44.028;20.466;2023-04-24T04:13:49;97516.28;;;9.87
66180;BMP280;52986;44.028;20.466;2023-04-24T04:16:15;97509.19;;;9.93
66180;BMP280;52986;44.028;20.466;2023-04-24T04:18:43;97517.06;;;9.97
66180;BMP280;52986;44.028;20.466;2023-04-24T04:21:09;97517.09;;;10.06
66180;BMP280;52986;44.028;20.466;2023-04-24T04:23:44;97514.72;;;10.08
66180;BMP280;52986;44.028;20.466;2023-04-24T04:26:16;97524.38;;;10.15
66180;BMP280;52986;44.028;20.466;2023-04-24T04:28:41;97521.88;;;10.20
66180;BMP280;52986;44.028;20.466;2023-04-24T04:31:07;97525.31;;;10.21
66180;BMP280;52986;44.028;20.466;2023-04-24T04:33:33;97527.38;;;10.26
66180;BMP280;52986;44.028;20.466;2023-04-24T04:35:59;97530.94;;;10.41
66180;BMP280;52986;44.028;20.466;2023-04-24T04:38:25;97519.34;;;10.53
66180;BMP280;52986;44.028;20.466;2023-04-24T04:40:51;97523.50;;;10.63
66180;BMP280;52986;44.028;20.466;2023-04-24T04:43:17;97524.84;;;10.86
66180;BMP280;52986;44.028;20.466;2023-04-24T04:45:42;97520.91;;;10.96
66180;BMP280;52986;44.028;20.466;2023-04-24T04:48:10;97528.38;;;11.02
66180;BMP280;52986;44.028;20.466;2023-04-24T04:50:38;97522.38;;;11.16
66180;BMP280;52986;44.028;20.466;2023-04-24T04:53:04;97526.38;;;11.20
66180;BMP280;52986;44.028;20.466;2023-04-24T04:55:30;97525.72;;;11.35
66180;BMP280;52986;44.028;20.466;2023-04-24T04:57:55;97527.91;;;11.54
66180;BMP280;52986;44.028;20.466;2023-04-24T05:00:22;97533.97;;;11.88
66180;BMP280;52986;44.028;20.466;2023-04-24T05:02:50;97528.50;;;12.06
66180;BMP280;52986;44.028;20.466;2023-04-24T05:05:16;97528.75;;;12.32
66180;BMP280;52986;44.028;20.466;2023-04-24T05:07:43;97528.78;;;12.47
66180;BMP280;52986;44.028;20.466;2023-04-24T05:10:08;97528.78;;;12.47
66180;BMP280;52986;44.028;20.466;2023-04-24T05:12:34;97530.06;;;12.51
66180;BMP280;52986;44.028;20.466;2023-04-24T05:14:59;97527.22;;;12.55
66180;BMP280;52986;44.028;20.466;2023-04-24T05:17:25;97534.81;;;12.57
66180;BMP280;52986;44.028;20.466;2023-04-24T05:19:51;97527.22;;;12.55
66180;BMP280;52986;44.028;20.466;2023-04-24T05:22:16;97533.72;;;12.63
66180;BMP280;52986;44.028;20.466;2023-04-24T05:24:43;97533.91;;;12.74
66180;BMP280;52986;44.028;20.466;2023-04-24T05:27:09;97535.94;;;12.79
66180;BMP280;52986;44.028;20.466;2023-04-24T05:29:34;97539.84;;;12.93
66180;BMP280;52986;44.028;20.466;2023-04-24T05:32:00;97538.44;;;13.12
66180;BMP280;52986;44.028;20.466;2023-04-24T05:34:26;97533.25;;;13.24
66180;BMP280;52986;44.028;20.466;2023-04-24T05:36:51;97532.50;;;13.23
66180;BMP280;52986;44.028;20.466;2023-04-24T05:39:17;97530.88;;;13.31
66180;BMP280;52986;44.028;20.466;2023-04-24T05:41:43;97532.66;;;13.34
66180;BMP280;52986;44.028;20.466;2023-04-24T05:44:08;97531.53;;;13.41
66180;BMP280;52986;44.028;20.466;2023-04-24T05:46:34;97528.78;;;13.56
66180;BMP280;52986;44.028;20.466;2023-04-24T05:48:59;97530.38;;;13.83
66180;BMP280;52986;44.028;20.466;2023-04-24T05:51:25;97529.09;;;14.44
66180;BMP280;52986;44.028;20.466;2023-04-24T05:53:51;97525.22;;;15.08
66180;BMP280;52986;44.028;20.466;2023-04-24T05:56:17;97532.22;;;15.69
66180;BMP280;52986;44.028;20.466;2023-04-24T05:58:42;97524.97;;;16.08
66180;BMP280;52986;44.028;20.466;2023-04-24T06:01:08;97520.66;;;16.61
66180;BMP280;52986;44.028;20.466;2023-04-24T06:03:33;97524.53;;;17.22
66180;BMP280;52986;44.028;20.466;2023-04-24T06:05:58;97519.47;;;17.65
66180;BMP280;52986;44.028;20.466;2023-04-24T06:08:24;97521.53;;;18.35
66180;BMP280;52986;44.028;20.466;2023-04-24T06:10:49;97526.41;;;19.02
66180;BMP280;52986;44.028;20.466;2023-04-24T06:13:15;97520.53;;;19.60
66180;BMP280;52986;44.028;20.466;2023-04-24T06:15:41;97519.31;;;19.99
66180;BMP280;52986;44.028;20.466;2023-04-24T06:18:06;97513.72;;;20.10
66180;BMP280;52986;44.028;20.466;2023-04-24T06:20:32;97523.00;;;20.14
66180;BMP280;52986;44.028;20.466;2023-04-24T06:22:57;97512.16;;;19.96
66180;BMP280;52986;44.028;20.466;2023-04-24T06:25:25;97526.31;;;19.75
66180;BMP280;52986;44.028;20.466;2023-04-24T06:27:51;97515.69;;;19.72
66180;BMP280;52986;44.028;20.466;2023-04-24T06:30:17;97521.06;;;19.96
66180;BMP280;52986;44.028;20.466;2023-04-24T06:32:42;97521.03;;;20.47
66180;BMP280;52986;44.028;20.466;2023-04-24T06:35:08;97518.91;;;20.85
66180;BMP280;52986;44.028;20.466;2023-04-24T06:37:35;97520.44;;;21.46
66180;BMP280;52986;44.028;20.466;2023-04-24T06:40:00;97520.00;;;22.31
66180;BMP280;52986;44.028;20.466;2023-04-24T06:42:25;97519.81;;;23.06
66180;BMP280;52986;44.028;20.466;2023-04-24T06:44:51;97522.94;;;23.62
66180;BMP280;52986;44.028;20.466;2023-04-24T06:47:16;97520.97;;;24.53
66180;BMP280;52986;44.028;20.466;2023-04-24T06:49:42;97519.34;;;25.46
66180;BMP280;52986;44.028;20.466;2023-04-24T06:52:07;97512.31;;;24.87
66180;BMP280;52986;44.028;20.466;2023-04-24T06:54:33;97518.22;;;24.69
66180;BMP280;52986;44.028;20.466;2023-04-24T06:57:00;97521.34;;;25.85
66180;BMP280;52986;44.028;20.466;2023-04-24T06:59:27;97521.78;;;26.75
66180;BMP280;52986;44.028;20.466;2023-04-24T07:01:54;97520.88;;;26.21
66180;BMP280;52986;44.028;20.466;2023-04-24T07:04:20;97523.34;;;26.09
66180;BMP280;52986;44.028;20.466;2023-04-24T07:06:45;97521.22;;;26.77
66180;BMP280;52986;44.028;20.466;2023-04-24T07:09:14;97521.78;;;27.19
66180;BMP280;52986;44.028;20.466;2023-04-24T07:11:41;97512.97;;;26.59
66180;BMP280;52986;44.028;20.466;2023-04-24T07:14:07;97518.75;;;25.87
66180;BMP280;52986;44.028;20.466;2023-04-24T07:16:32;97521.09;;;24.93
66180;BMP280;52986;44.028;20.466;2023-04-24T07:18:58;97522.06;;;24.35
66180;BMP280;52986;44.028;20.466;2023-04-24T07:21:23;97514.56;;;23.82
66180;BMP280;52986;44.028;20.466;2023-04-24T07:23:48;97513.66;;;23.80
66180;BMP280;52986;44.028;20.466;2023-04-24T07:26:14;97515.69;;;24.10
66180;BMP280;52986;44.028;20.466;2023-04-24T07:28:40;97516.75;;;23.76
66180;BMP280;52986;44.028;20.466;2023-04-24T07:31:06;97519.06;;;23.57
66180;BMP280;52986;44.028;20.466;2023-04-24T07:33:32;97517.06;;;23.06
66180;BMP280;52986;44.028;20.466;2023-04-24T07:35:58;97520.16;;;23.10
66180;BMP280;52986;44.028;20.466;2023-04-24T07:38:23;97522.66;;;22.93
66180;BMP280;52986;44.028;20.466;2023-04-24T07:40:51;97518.09;;;22.67
66180;BMP280;52986;44.028;20.466;2023-04-24T07:43:16;97526.88;;;22.24
66180;BMP280;52986;44.028;20.466;2023-04-24T07:45:42;97522.00;;;21.89
66180;BMP280;52986;44.028;20.466;2023-04-24T07:48:08;97511.59;;;21.67
66180;BMP280;52986;44.028;20.466;2023-04-24T07:50:34;97514.59;;;21.29
66180;BMP280;52986;44.028;20.466;2023-04-24T07:53:00;97514.03;;;21.44
66180;BMP280;52986;44.028;20.466;2023-04-24T07:55:25;97513.56;;;21.66
66180;BMP280;52986;44.028;20.466;2023-04-24T07:57:51;97522.97;;;21.78
66180;BMP280;52986;44.028;20.466;2023-04-24T08:00:16;97520.16;;;21.71
66180;BMP280;52986;44.028;20.466;2023-04-24T08:02:42;97521.06;;;21.86
66180;BMP280;52986;44.028;20.466;2023-04-24T08:05:07;97523.09;;;22.27
66180;BMP280;52986;44.028;20.466;2023-04-24T08:07:33;97524.25;;;23.25
66180;BMP280;52986;44.028;20.466;2023-04-24T08:10:00;97526.97;;;24.75
66180;BMP280;52986;44.028;20.466;2023-04-24T08:12:26;97520.88;;;25.96
66180;BMP280;52986;44.028;20.466;2023-04-24T08:14:51;97515.94;;;26.37
66180;BMP280;52986;44.028;20.466;2023-04-24T08:17:17;97519.00;;;27.10
66180;BMP280;52986;44.028;20.466;2023-04-24T08:19:42;97517.31;;;27.77
66180;BMP280;52986;44.028;20.466;2023-04-24T08:22:12;97514.78;;;28.08
66180;BMP280;52986;44.028;20.466;2023-04-24T08:24:38;97518.75;;;28.63
66180;BMP280;52986;44.028;20.466;2023-04-24T08:27:03;97503.22;;;27.64
66180;BMP280;52986;44.028;20.466;2023-04-24T08:29:29;97504.72;;;27.21
66180;BMP280;52986;44.028;20.466;2023-04-24T08:31:54;97517.00;;;26.58
66180;BMP280;52986;44.028;20.466;2023-04-24T08:34:20;97511.97;;;26.13
66180;BMP280;52986;44.028;20.466;2023-04-24T08:36:46;97510.16;;;25.58
66180;BMP280;52986;44.028;20.466;2023-04-24T08:39:11;97500.69;;;24.49
66180;BMP280;52986;44.028;20.466;2023-04-24T08:41:37;97504.19;;;23.96
66180;BMP280;52986;44.028;20.466;2023-04-24T08:44:03;97505.88;;;23.40
66180;BMP280;52986;44.028;20.466;2023-04-24T08:46:29;97514.22;;;22.84
66180;BMP280;52986;44.028;20.466;2023-04-24T08:48:56;97514.06;;;22.61
66180;BMP280;52986;44.028;20.466;2023-04-24T08:51:22;97510.75;;;22.13
66180;BMP280;52986;44.028;20.466;2023-04-24T08:53:48;97520.25;;;21.78
66180;BMP280;52986;44.028;20.466;2023-04-24T08:56:13;97516.75;;;21.44
66180;BMP280;52986;44.028;20.466;2023-04-24T08:58:40;97510.06;;;21.32
66180;BMP280;52986;44.028;20.466;2023-04-24T09:01:06;97509.59;;;21.07
66180;BMP280;52986;44.028;20.466;2023-04-24T09:03:33;97505.91;;;21.17
66180;BMP280;52986;44.028;20.466;2023-04-24T09:05:58;97504.34;;;21.09
66180;BMP280;52986;44.028;20.466;2023-04-24T09:08:26;97505.81;;;21.10
66180;BMP280;52986;44.028;20.466;2023-04-24T09:10:52;97498.69;;;20.93
66180;BMP280;52986;44.028;20.466;2023-04-24T09:13:19;97501.63;;;20.96
66180;BMP280;52986;44.028;20.466;2023-04-24T09:15:45;97491.66;;;20.85
66180;BMP280;52986;44.028;20.466;2023-04-24T09:18:10;97493.53;;;21.03
66180;BMP280;52986;44.028;20.466;2023-04-24T09:20:59;97489.88;;;21.14
66180;BMP280;52986;44.028;20.466;2023-04-24T09:23:29;97487.94;;;21.82
66180;BMP280;52986;44.028;20.466;2023-04-24T09:25:56;97484.78;;;22.41
66180;BMP280;52986;44.028;20.466;2023-04-24T09:28:25;97487.88;;;22.94
66180;BMP280;52986;44.028;20.466;2023-04-24T09:31:09;97481.03;;;23.23
66180;BMP280;52986;44.028;20.466;2023-04-24T09:33:35;97480.22;;;23.36
66180;BMP280;52986;44.028;20.466;2023-04-24T09:36:01;97481.63;;;23.37
66180;BMP280;52986;44.028;20.466;2023-04-24T09:38:37;97479.94;;;23.19
66180;BMP280;52986;44.028;20.466;2023-04-24T09:41:06;97482.03;;;22.69
66180;BMP280;52986;44.028;20.466;2023-04-24T09:43:33;97484.00;;;22.32
66180;BMP280;52986;44.028;20.466;2023-04-24T09:46:04;97486.94;;;21.93
66180;BMP280;52986;44.028;20.466;2023-04-24T09:48:31;97476.59;;;21.57
66180;BMP280;52986;44.028;20.466;2023-04-24T09:50:57;97474.19;;;21.54
66180;BMP280;52986;44.028;20.466;2023-04-24T09:53:25;97472.94;;;21.76
66180;BMP280;52986;44.028;20.466;2023-04-24T09:55:51;97468.69;;;22.29
66180;BMP280;52986;44.028;20.466;2023-04-24T09:58:20;97464.31;;;22.83
66180;BMP280;52986;44.028;20.466;2023-04-24T10:00:49;97466.81;;;23.17
66180;BMP280;52986;44.028;20.466;2023-04-24T10:03:17;97452.72;;;23.64
66180;BMP280;52986;44.028;20.466;2023-04-24T10:05:46;97449.41;;;23.50
66180;BMP280;52986;44.028;20.466;2023-04-24T10:08:12;97440.88;;;23.54
66180;BMP280;52986;44.028;20.466;2023-04-24T10:10:43;97442.63;;;23.36
66180;BMP280;52986;44.028;20.466;2023-04-24T10:13:13;97441.69;;;23.19
66180;BMP280;52986;44.028;20.466;2023-04-24T10:15:40;97435.69;;;23.20
66180;BMP280;52986;44.028;20.466;2023-04-24T10:18:07;97436.34;;;23.72
66180;BMP280;52986;44.028;20.466;2023-04-24T10:20:35;97437.91;;;24.43
66180;BMP280;52986;44.028;20.466;2023-04-24T10:23:01;97450.78;;;25.46
66180;BMP280;52986;44.028;20.466;2023-04-24T10:25:31;97454.88;;;27.44
66180;BMP280;52986;44.028;20.466;2023-04-24T10:27:58;97438.94;;;29.15
66180;BMP280;52986;44.028;20.466;2023-04-24T10:30:26;97439.00;;;30.21
66180;BMP280;52986;44.028;20.466;2023-04-24T10:32:52;97427.38;;;30.35
66180;BMP280;52986;44.028;20.466;2023-04-24T10:35:18;97422.47;;;29.79
66180;BMP280;52986;44.028;20.466;2023-04-24T10:37:50;97413.31;;;29.24
66180;BMP280;52986;44.028;20.466;2023-04-24T10:40:25;97418.03;;;29.12
66180;BMP280;52986;44.028;20.466;2023-04-24T10:42:51;97408.00;;;29.69
66180;BMP280;52986;44.028;20.466;2023-04-24T10:45:20;97405.03;;;28.93
66180;BMP280;52986;44.028;20.466;2023-04-24T10:47:58;97406.56;;;28.66
66180;BMP280;52986;44.028;20.466;2023-04-24T10:50:26;97405.75;;;28.15
66180;BMP280;52986;44.028;20.466;2023-04-24T10:52:52;97402.97;;;27.86
66180;BMP280;52986;44.028;20.466;2023-04-24T10:56:07;97392.03;;;27.40
66180;BMP280;52986;44.028;20.466;2023-04-24T10:58:53;97392.13;;;26.52
66180;BMP280;52986;44.028;20.466;2023-04-24T11:01:31;97387.47;;;25.51
66180;BMP280;52986;44.028;20.466;2023-04-24T11:04:00;97392.28;;;24.86
66180;BMP280;52986;44.028;20.466;2023-04-24T11:06:43;97389.78;;;24.10
66180;BMP280;52986;44.028;20.466;2023-04-24T11:09:10;97394.72;;;23.50
66180;BMP280;52986;44.028;20.466;2023-04-24T11:11:38;97396.56;;;22.89
66180;BMP280;52986;44.028;20.466;2023-04-24T11:14:09;97408.06;;;22.52
66180;BMP280;52986;44.028;20.466;2023-04-24T11:19:31;97419.75;;;21.61
66180;BMP280;52986;44.028;20.466;2023-04-24T11:22:04;97436.63;;;21.26
66180;BMP280;52986;44.028;20.466;2023-04-24T11:30:02;97507.72;;;19.79
66180;BMP280;52986;44.028;20.466;2023-04-24T11:35:19;97523.97;;;19.42
66180;BMP280;52986;44.028;20.466;2023-04-24T11:37:50;97530.56;;;19.28
66180;BMP280;52986;44.028;20.466;2023-04-24T11:40:18;97534.59;;;18.97
66180;BMP280;52986;44.028;20.466;2023-04-24T11:42:52;97540.44;;;18.46
66180;BMP280;52986;44.028;20.466;2023-04-24T11:45:26;97550.34;;;17.97
66180;BMP280;52986;44.028;20.466;2023-04-24T11:47:52;97565.03;;;17.61
66180;BMP280;52986;44.028;20.466;2023-04-24T11:50:21;97579.63;;;17.35
66180;BMP280;52986;44.028;20.466;2023-04-24T11:52:47;97578.69;;;17.16
66180;BMP280;52986;44.028;20.466;2023-04-24T11:57:51;97568.56;;;16.83
66180;BMP280;52986;44.028;20.466;2023-04-24T12:00:19;97563.19;;;16.61
66180;BMP280;52986;44.028;20.466;2023-04-24T12:02:46;97538.34;;;16.62
66180;BMP280;52986;44.028;20.466;2023-04-24T12:05:26;97532.22;;;16.90
66180;BMP280;52986;44.028;20.466;2023-04-24T12:07:52;97535.63;;;17.07
66180;BMP280;52986;44.028;20.466;2023-04-24T12:10:22;97523.50;;;17.30
66180;BMP280;52986;44.028;20.466;2023-04-24T12:12:48;97521.47;;;17.53
66180;BMP280;52986;44.028;20.466;2023-04-24T12:15:16;97510.59;;;17.70
66180;BMP280;52986;44.028;20.466;2023-04-24T12:17:42;97497.53;;;18.09
66180;BMP280;52986;44.028;20.466;2023-04-24T12:20:08;97483.63;;;18.30
66180;BMP280;52986;44.028;20.466;2023-04-24T12:22:47;97479.00;;;18.79
66180;BMP280;52986;44.028;20.466;2023-04-24T12:25:15;97476.44;;;19.11
66180;BMP280;52986;44.028;20.466;2023-04-24T12:27:41;97472.88;;;19.59
66180;BMP280;52986;44.028;20.466;2023-04-24T12:30:15;97457.91;;;20.03
66180;BMP280;52986;44.028;20.466;2023-04-24T12:32:42;97452.59;;;20.56
66180;BMP280;52986;44.028;20.466;2023-04-24T12:35:08;97432.81;;;20.95
66180;BMP280;52986;44.028;20.466;2023-04-24T12:37:34;97417.81;;;21.02
66180;BMP280;52986;44.028;20.466;2023-04-24T12:42:29;97401.63;;;21.72
66180;BMP280;52986;44.028;20.466;2023-04-24T12:45:03;97396.44;;;22.02
66180;BMP280;52986;44.028;20.466;2023-04-24T12:47:29;97389.19;;;22.05
66180;BMP280;52986;44.028;20.466;2023-04-24T12:49:55;97389.16;;;21.97
66180;BMP280;52986;44.028;20.466;2023-04-24T12:52:25;97385.59;;;21.89
66180;BMP280;52986;44.028;20.466;2023-04-24T12:54:53;97378.94;;;22.18
66180;BMP280;52986;44.028;20.466;2023-04-24T12:57:18;97368.56;;;21.96
66180;BMP280;52986;44.028;20.466;2023-04-24T12:59:44;97371.44;;;21.90
66180;BMP280;52986;44.028;20.466;2023-04-24T13:02:10;97362.75;;;21.71
66180;BMP280;52986;44.028;20.466;2023-04-24T13:04:35;97356.56;;;21.71
66180;BMP280;52986;44.028;20.466;2023-04-24T13:07:01;97349.31;;;21.73
66180;BMP280;52986;44.028;20.466;2023-04-24T13:09:27;97343.66;;;21.71
66180;BMP280;52986;44.028;20.466;2023-04-24T13:11:52;97348.41;;;21.50
66180;BMP280;52986;44.028;20.466;2023-04-24T13:14:18;97345.25;;;21.25
66180;BMP280;52986;44.028;20.466;2023-04-24T13:16:43;97333.34;;;21.36
66180;BMP280;52986;44.028;20.466;2023-04-24T13:19:08;97332.63;;;21.14
66180;BMP280;52986;44.028;20.466;2023-04-24T13:21:34;97325.47;;;21.11
66180;BMP280;52986;44.028;20.466;2023-04-24T13:23:59;97318.13;;;20.85
66180;BMP280;52986;44.028;20.466;2023-04-24T13:26:25;97314.47;;;20.70
66180;BMP280;52986;44.028;20.466;2023-04-24T13:28:50;97313.53;;;20.80
66180;BMP280;52986;44.028;20.466;2023-04-24T13:31:16;97304.75;;;20.74
66180;BMP280;52986;44.028;20.466;2023-04-24T13:33:42;97302.63;;;20.80
66180;BMP280;52986;44.028;20.466;2023-04-24T13:36:07;97303.47;;;20.75
66180;BMP280;52986;44.028;20.466;2023-04-24T13:38:33;97306.94;;;20.76
66180;BMP280;52986;44.028;20.466;2023-04-24T13:40:59;97300.38;;;20.71
66180;BMP280;52986;44.028;20.466;2023-04-24T13:43:24;97288.25;;;20.59
66180;BMP280;52986;44.028;20.466;2023-04-24T13:45:50;97281.47;;;20.52
66180;BMP280;52986;44.028;20.466;2023-04-24T13:48:15;97280.97;;;20.75
66180;BMP280;52986;44.028;20.466;2023-04-24T13:50:42;97281.69;;;20.75
66180;BMP280;52986;44.028;20.466;2023-04-24T13:53:07;97275.03;;;20.63
66180;BMP280;52986;44.028;20.466;2023-04-24T13:55:33;97268.78;;;20.55
66180;BMP280;52986;44.028;20.466;2023-04-24T13:57:58;97274.47;;;20.31
66180;BMP280;52986;44.028;20.466;2023-04-24T14:00:23;97268.41;;;20.11
66180;BMP280;52986;44.028;20.466;2023-04-24T14:02:49;97256.91;;;19.92
66180;BMP280;52986;44.028;20.466;2023-04-24T14:05:15;97263.69;;;19.85
66180;BMP280;52986;44.028;20.466;2023-04-24T14:07:41;97258.22;;;19.59
66180;BMP280;52986;44.028;20.466;2023-04-24T14:10:09;97257.25;;;19.43